Time;durP1;ratioP1;P1;durP2;ratioP2;P2;SDS_P1;SDS_P2;PMS_P1;PMS_P2;Temp;Humidity;BMP_temperature;BMP_pressure;BME280_temperature;BME280_humidity;BME280_pressure;Samples;Min_cycle;Max_cycle;Signal;HPM_P1;HPM_P2
2022/05/19 00:01:55;;;;;;;8.00;2.67;;;;;;;;;;6185254;23;20164;-91
2022/05/19 00:05:01;;;;;;;3.60;2.58;;;;;;;;;;6170791;23;20267;-91
2022/05/19 00:08:06;;;;;;;5.70;2.70;;;;;;;;;;6155543;23;20175;-90
2022/05/19 00:11:15;;;;;;;6.32;2.80;;;;;;;;;;6155732;23;20188;-90
2022/05/19 00:14:21;;;;;;;5.45;2.80;;;;;;;;;;6173427;23;20216;-91
2022/05/19 00:17:26;;;;;;;5.70;2.80;;;;;;;;;;6155785;23;20164;-91
2022/05/19 00:20:31;;;;;;;9.02;3.20;;;;;;;;;;6154316;23;20193;-91
2022/05/19 00:23:37;;;;;;;9.88;3.42;;;;;;;;;;6171448;23;20156;-92
2022/05/19 00:26:43;;;;;;;10.27;3.10;;;;;;;;;;6152049;23;20185;-90
2022/05/19 00:29:49;;;;;;;7.72;3.03;;;;;;;;;;6171106;23;20152;-92
2022/05/19 00:32:56;;;;;;;5.82;3.00;;;;;;;;;;6154985;23;20177;-91
2022/05/19 00:36:07;;;;;;;10.00;3.15;;;;;;;;;;6154759;23;20172;-91
2022/05/19 00:39:13;;;;;;;4.63;2.40;;;;;;;;;;6156072;23;20152;-91
2022/05/19 00:45:55;;;;;;;6.35;3.10;;;;;;;;;;6154859;23;20195;-91
2022/05/19 00:49:04;;;;;;;5.50;2.83;;;;;;;;;;6154534;23;20177;-90
2022/05/19 00:52:11;;;;;;;4.80;2.70;;;;;;;;;;6155603;23;20181;-91
2022/05/19 00:55:19;;;;;;;7.38;2.45;;;;;;;;;;6162631;23;20164;-91
2022/05/19 00:58:28;;;;;;;4.35;2.58;;;;;;;;;;6154340;23;20173;-90
2022/05/19 01:01:34;;;;;;;7.35;3.30;;;;;;;;;;6155627;23;20172;-91
2022/05/19 01:04:44;;;;;;;4.70;3.22;;;;;;;;;;6157227;23;20208;-90
2022/05/19 01:07:53;;;;;;;6.45;3.00;;;;;;;;;;6188846;23;20214;-91
2022/05/19 01:11:01;;;;;;;6.88;2.60;;;;;;;;;;6190181;23;20181;-90
2022/05/19 01:14:09;;;;;;;7.05;3.10;;;;;;;;;;6170793;23;20216;-90
2022/05/19 01:17:15;;;;;;;7.13;2.95;;;;;;;;;;6190659;23;20217;-90
2022/05/19 01:20:21;;;;;;;5.85;2.75;;;;;;;;;;6172017;23;20168;-91
2022/05/19 01:23:33;;;;;;;6.65;2.90;;;;;;;;;;6193191;23;20212;-89
2022/05/19 01:26:47;;;;;;;6.13;3.30;;;;;;;;;;6173223;23;20664;-91
2022/05/19 01:29:54;;;;;;;6.40;3.20;;;;;;;;;;6190124;23;20209;-91
2022/05/19 01:32:59;;;;;;;8.25;3.50;;;;;;;;;;6174282;23;20184;-90
2022/05/19 01:36:05;;;;;;;11.60;3.20;;;;;;;;;;6190733;23;20188;-90
2022/05/19 01:39:12;;;;;;;9.38;3.35;;;;;;;;;;6175511;23;20173;-91
2022/05/19 01:42:24;;;;;;;4.97;2.83;;;;;;;;;;6191710;23;20180;-91
2022/05/19 01:45:42;;;;;;;4.88;3.10;;;;;;;;;;6170378;23;20177;-92
2022/05/19 01:48:50;;;;;;;9.85;3.50;;;;;;;;;;6187743;23;20173;-89
2022/05/19 01:51:57;;;;;;;5.57;3.05;;;;;;;;;;6170258;23;20238;-90
2022/05/19 01:55:05;;;;;;;6.60;3.30;;;;;;;;;;6172829;23;20236;-90
2022/05/19 01:58:13;;;;;;;6.72;2.90;;;;;;;;;;6170269;23;20169;-91
2022/05/19 02:01:19;;;;;;;9.00;3.53;;;;;;;;;;6188389;23;20152;-91
2022/05/19 02:04:27;;;;;;;8.38;3.78;;;;;;;;;;6182607;23;20176;-88
2022/05/19 02:07:36;;;;;;;10.27;4.50;;;;;;;;;;6185455;23;20172;-89
2022/05/19 02:10:43;;;;;;;6.78;4.57;;;;;;;;;;6185426;23;20155;-90
2022/05/19 02:13:50;;;;;;;7.28;4.47;;;;;;;;;;6184910;23;20172;-91
2022/05/19 02:16:56;;;;;;;7.65;4.25;;;;;;;;;;6201705;23;20246;-90
2022/05/19 02:20:04;;;;;;;9.80;4.40;;;;;;;;;;6183895;23;20167;-90
2022/05/19 02:23:11;;;;;;;9.20;4.15;;;;;;;;;;6185384;23;20155;-90
2022/05/19 02:26:17;;;;;;;10.20;4.47;;;;;;;;;;6185063;23;20658;-91
2022/05/19 02:29:26;;;;;;;8.75;4.45;;;;;;;;;;6183948;23;20171;-91
2022/05/19 02:32:31;;;;;;;10.55;4.40;;;;;;;;;;6181879;23;20168;-91
2022/05/19 02:35:36;;;;;;;13.15;4.82;;;;;;;;;;6181772;23;20176;-91
2022/05/19 02:38:43;;;;;;;6.32;3.80;;;;;;;;;;6184630;23;20164;-90
2022/05/19 02:41:49;;;;;;;10.40;4.40;;;;;;;;;;6184162;23;20497;-90
2022/05/19 02:44:55;;;;;;;7.00;4.40;;;;;;;;;;6184388;23;20191;-90
2022/05/19 02:48:01;;;;;;;8.85;4.28;;;;;;;;;;6184609;23;20147;-89
2022/05/19 02:51:06;;;;;;;11.05;4.70;;;;;;;;;;6184380;23;20171;-90
2022/05/19 02:54:11;;;;;;;11.00;4.28;;;;;;;;;;6184373;23;20209;-91
2022/05/19 02:57:17;;;;;;;9.30;4.38;;;;;;;;;;6185454;23;20160;-91
2022/05/19 03:00:25;;;;;;;13.15;5.53;;;;;;;;;;6201263;23;20167;-93
2022/05/19 03:03:32;;;;;;;14.00;5.10;;;;;;;;;;6183830;23;20215;-91
2022/05/19 03:06:37;;;;;;;13.20;6.00;;;;;;;;;;6153228;23;20196;-90
2022/05/19 03:09:45;;;;;;;11.60;4.90;;;;;;;;;;6170466;23;20168;-88
2022/05/19 03:12:51;;;;;;;10.98;4.60;;;;;;;;;;6171762;23;20596;-90
2022/05/19 03:15:58;;;;;;;9.45;4.13;;;;;;;;;;6170637;23;20542;-90
2022/05/19 03:19:32;;;;;;;14.68;5.07;;;;;;;;;;6170296;23;20168;-90
2022/05/19 03:22:40;;;;;;;11.18;5.20;;;;;;;;;;6168478;23;20160;-89
2022/05/19 03:25:45;;;;;;;12.50;4.53;;;;;;;;;;6168598;23;20176;-92
2022/05/19 03:28:51;;;;;;;8.75;4.00;;;;;;;;;;6171090;23;20168;-91
2022/05/19 03:31:57;;;;;;;11.23;3.92;;;;;;;;;;6151957;23;20169;-90
2022/05/19 03:35:03;;;;;;;7.22;4.10;;;;;;;;;;6171874;23;20156;-90
2022/05/19 03:38:09;;;;;;;6.00;3.80;;;;;;;;;;6154547;23;20165;-91
2022/05/19 03:41:14;;;;;;;7.68;4.03;;;;;;;;;;6171553;23;20212;-91
2022/05/19 03:44:18;;;;;;;6.55;3.85;;;;;;;;;;6171003;23;20183;-90
2022/05/19 03:47:25;;;;;;;11.10;4.38;;;;;;;;;;6153927;23;20180;-91
2022/05/19 03:50:30;;;;;;;9.48;4.32;;;;;;;;;;6172766;23;20172;-91
2022/05/19 03:53:36;;;;;;;10.07;4.22;;;;;;;;;;6154400;23;20238;-90
2022/05/19 03:56:41;;;;;;;12.48;3.97;;;;;;;;;;6171833;23;20160;-89
2022/05/19 03:59:46;;;;;;;9.43;4.60;;;;;;;;;;6173945;23;20153;-89
2022/05/19 04:02:53;;;;;;;8.45;4.35;;;;;;;;;;6173713;23;20690;-91
2022/05/19 04:05:58;;;;;;;10.52;4.18;;;;;;;;;;6172295;23;20235;-90
2022/05/19 04:09:03;;;;;;;10.10;4.13;;;;;;;;;;6155953;23;20162;-90
2022/05/19 04:12:09;;;;;;;10.00;3.70;;;;;;;;;;6155937;23;20224;-89
2022/05/19 04:15:15;;;;;;;10.48;3.50;;;;;;;;;;6155472;23;20184;-90
2022/05/19 04:18:22;;;;;;;8.77;3.80;;;;;;;;;;6155219;23;20164;-90
2022/05/19 04:21:27;;;;;;;12.18;4.45;;;;;;;;;;6158096;23;20200;-90
2022/05/19 04:24:33;;;;;;;8.57;3.80;;;;;;;;;;6155825;23;20169;-91
2022/05/19 04:27:40;;;;;;;11.50;3.70;;;;;;;;;;6156043;23;20161;-91
2022/05/19 04:30:46;;;;;;;10.38;4.15;;;;;;;;;;6156640;23;20153;-91
2022/05/19 04:33:53;;;;;;;7.72;4.18;;;;;;;;;;6173586;23;20177;-92
2022/05/19 04:36:59;;;;;;;8.18;3.90;;;;;;;;;;6156910;23;20219;-92
2022/05/19 04:40:05;;;;;;;9.32;3.55;;;;;;;;;;6155874;23;20247;-92
2022/05/19 04:43:11;;;;;;;7.65;3.78;;;;;;;;;;6172298;23;20200;-89
2022/05/19 04:46:16;;;;;;;10.02;3.70;;;;;;;;;;6155680;23;20195;-91
2022/05/19 04:49:25;;;;;;;9.95;3.55;;;;;;;;;;6155206;23;20167;-91
2022/05/19 04:52:30;;;;;;;8.15;3.72;;;;;;;;;;6154052;23;20169;-91
2022/05/19 04:55:37;;;;;;;8.35;4.03;;;;;;;;;;6153846;23;20176;-92
2022/05/19 04:58:42;;;;;;;8.90;4.15;;;;;;;;;;6154547;23;20160;-91
2022/05/19 05:01:48;;;;;;;8.63;3.80;;;;;;;;;;6154210;23;20764;-89
2022/05/19 05:04:55;;;;;;;8.63;3.92;;;;;;;;;;6161667;23;20191;-89
2022/05/19 05:08:01;;;;;;;7.57;3.55;;;;;;;;;;6172790;23;20156;-90
2022/05/19 05:11:06;;;;;;;6.65;3.60;;;;;;;;;;6188959;23;20164;-90
2022/05/19 05:14:11;;;;;;;7.22;3.78;;;;;;;;;;6188602;23;20177;-89
2022/05/19 05:17:17;;;;;;;9.00;4.10;;;;;;;;;;6188648;23;20218;-90
2022/05/19 05:20:28;;;;;;;7.35;3.83;;;;;;;;;;6191151;23;20217;-92
2022/05/19 05:23:33;;;;;;;6.43;3.92;;;;;;;;;;6190702;23;20208;-90
2022/05/19 05:26:39;;;;;;;11.23;5.55;;;;;;;;;;6174642;23;20203;-91
2022/05/19 05:29:44;;;;;;;9.63;4.10;;;;;;;;;;6190516;23;20172;-91
2022/05/19 05:32:54;;;;;;;8.35;4.38;;;;;;;;;;6172020;23;20170;-91
2022/05/19 05:36:04;;;;;;;8.73;3.80;;;;;;;;;;6173953;23;20242;-91
2022/05/19 05:39:10;;;;;;;14.65;5.72;;;;;;;;;;6173763;23;20200;-92
2022/05/19 05:42:16;;;;;;;7.50;3.35;;;;;;;;;;6190590;23;20165;-90
2022/05/19 05:45:22;;;;;;;6.80;3.70;;;;;;;;;;6170207;23;20152;-90
2022/05/19 05:48:27;;;;;;;6.55;3.70;;;;;;;;;;6188028;23;20171;-89
2022/05/19 05:51:34;;;;;;;7.25;3.35;;;;;;;;;;6172402;23;20206;-88
2022/05/19 05:54:41;;;;;;;8.05;3.15;;;;;;;;;;6171348;23;20161;-90
2022/05/19 05:57:47;;;;;;;6.07;3.22;;;;;;;;;;6174079;23;20218;-90
2022/05/19 06:00:52;;;;;;;9.77;3.60;;;;;;;;;;6190142;23;20184;-92
2022/05/19 06:03:57;;;;;;;5.10;3.17;;;;;;;;;;6178215;23;20191;-91
2022/05/19 06:07:04;;;;;;;6.82;3.40;;;;;;;;;;6186568;23;20187;-89
2022/05/19 06:10:10;;;;;;;8.55;3.38;;;;;;;;;;6203485;23;20160;-90
2022/05/19 06:13:16;;;;;;;6.93;3.00;;;;;;;;;;6202940;23;20199;-90
2022/05/19 06:16:21;;;;;;;7.13;3.35;;;;;;;;;;6203267;23;20167;-91
2022/05/19 06:19:26;;;;;;;11.00;3.65;;;;;;;;;;6182769;23;20227;-91
2022/05/19 06:22:33;;;;;;;6.07;3.17;;;;;;;;;;6183834;23;20167;-93
2022/05/19 06:25:39;;;;;;;4.50;2.90;;;;;;;;;;6182992;23;20400;-93
2022/05/19 06:28:44;;;;;;;5.78;2.40;;;;;;;;;;6186981;23;20595;-89
2022/05/19 06:31:57;;;;;;;4.88;2.50;;;;;;;;;;6184023;23;20245;-90
2022/05/19 06:35:02;;;;;;;5.40;2.83;;;;;;;;;;6184596;23;20183;-91
2022/05/19 06:38:09;;;;;;;7.63;2.92;;;;;;;;;;6184839;23;20242;-92
2022/05/19 06:44:39;;;;;;;8.65;3.15;;;;;;;;;;6201722;23;20195;-92
2022/05/19 06:47:45;;;;;;;6.32;1.90;;;;;;;;;;6185639;23;20183;-92
2022/05/19 06:54:13;;;;;;;4.93;1.83;;;;;;;;;;6203577;23;20229;-92
2022/05/19 06:57:19;;;;;;;5.45;2.15;;;;;;;;;;6187025;23;20164;-91
2022/05/19 07:00:28;;;;;;;3.90;1.92;;;;;;;;;;6203846;23;20177;-91
2022/05/19 07:03:37;;;;;;;9.80;1.80;;;;;;;;;;6186179;23;20213;-91
2022/05/19 07:06:43;;;;;;;7.18;2.25;;;;;;;;;;6186551;23;20204;-91
2022/05/19 07:09:50;;;;;;;4.22;2.22;;;;;;;;;;6186247;23;20207;-92
2022/05/19 07:13:23;;;;;;;6.25;2.10;;;;;;;;;;6185025;23;20211;-92
2022/05/19 19:32:24;;;;;;;8.20;4.95;;;;;;;;;;6196944;23;20203;-90
2022/05/19 19:35:29;;;;;;;13.75;5.47;;;;;;;;;;6236213;23;20171;-91
2022/05/19 19:38:34;;;;;;;13.38;5.68;;;;;;;;;;6218185;23;20154;-90
2022/05/19 19:41:41;;;;;;;9.52;5.55;;;;;;;;;;6218202;23;20167;-88
2022/05/19 19:44:48;;;;;;;8.55;5.50;;;;;;;;;;6235884;23;20171;-90
2022/05/19 19:47:55;;;;;;;11.35;5.45;;;;;;;;;;6235464;23;20199;-89
2022/05/19 19:54:26;;;;;;;12.77;5.90;;;;;;;;;;6234565;23;20223;-90
2022/05/19 19:57:32;;;;;;;9.15;4.68;;;;;;;;;;6217182;23;20160;-90
2022/05/19 20:00:47;;;;;;;8.20;5.00;;;;;;;;;;6234175;23;20174;-89
2022/05/19 20:03:54;;;;;;;9.48;5.55;;;;;;;;;;6233912;23;20167;-89
2022/05/19 20:07:04;;;;;;;11.43;4.97;;;;;;;;;;6236148;23;20226;-90
2022/05/19 20:10:11;;;;;;;7.55;4.43;;;;;;;;;;6214839;23;20178;-89
2022/05/19 20:13:17;;;;;;;9.32;4.85;;;;;;;;;;6232901;23;20806;-90
2022/05/19 23:09:26;;;;;;;10.90;4.00;;;;;;;;;;6245292;22;20234;-93
2022/05/19 23:12:32;;;;;;;9.70;4.40;;;;;;;;;;6250543;22;20203;-91
2022/05/19 23:15:39;;;;;;;13.15;4.75;;;;;;;;;;6251137;22;20211;-90
2022/05/19 23:18:45;;;;;;;8.70;4.47;;;;;;;;;;6251947;22;20610;-92
2022/05/19 23:21:50;;;;;;;7.70;4.30;;;;;;;;;;6250778;22;20163;-92
2022/05/19 23:24:57;;;;;;;11.27;4.75;;;;;;;;;;6249710;22;20617;-93
2022/05/19 23:28:03;;;;;;;12.05;4.78;;;;;;;;;;6252859;22;20210;-92
2022/05/19 23:31:09;;;;;;;7.63;4.82;;;;;;;;;;6249916;22;20150;-92
2022/05/19 23:34:14;;;;;;;6.10;4.38;;;;;;;;;;6250156;22;20159;-91
2022/05/19 23:37:23;;;;;;;10.35;5.05;;;;;;;;;;6232027;23;20203;-91
2022/05/19 23:40:32;;;;;;;10.85;4.75;;;;;;;;;;6250477;22;20150;-92
2022/05/19 23:43:38;;;;;;;12.90;5.00;;;;;;;;;;6251001;22;20170;-92
2022/05/19 23:46:43;;;;;;;15.70;5.68;;;;;;;;;;6248801;22;20170;-92
2022/05/19 23:49:50;;;;;;;8.38;5.20;;;;;;;;;;6268227;22;20174;-93
2022/05/19 23:52:56;;;;;;;11.18;4.90;;;;;;;;;;6248371;23;20626;-93
2022/05/19 23:56:03;;;;;;;11.23;5.15;;;;;;;;;;6250121;22;20174;-92
2022/05/19 23:59:10;;;;;;;10.77;4.82;;;;;;;;;;6249876;22;20171;-92
